createdAt,value
2022-11-07T00:03:30.382Z,35.27
2022-11-07T00:06:00.735Z,34.35
2022-11-07T00:08:33.898Z,37.03
2022-11-07T00:11:05.322Z,32.92
2022-11-07T00:13:36.665Z,33.97
2022-11-07T00:16:09.987Z,40.33
2022-11-07T00:18:41.200Z,33.63
2022-11-07T00:21:13.532Z,33.25
2022-11-07T00:23:44.854Z,31.13
2022-11-07T00:26:17.174Z,32.58
2022-11-07T00:28:47.921Z,30.85
2022-11-07T00:31:18.973Z,29.73
2022-11-07T00:33:49.735Z,29.80
2022-11-07T00:36:23.342Z,30.27
2022-11-07T00:38:54.582Z,27.95
2022-11-07T00:41:25.979Z,30.88
2022-11-07T00:43:56.723Z,30.15
2022-11-07T00:46:27.183Z,30.35
2022-11-07T00:48:57.776Z,29.98
2022-11-07T00:51:30.696Z,31.80
2022-11-07T00:54:01.268Z,37.63
2022-11-07T00:59:02.658Z,30.40
2022-11-07T01:01:35.520Z,29.85
2022-11-07T01:04:22.786Z,31.10
2022-11-07T01:06:53.210Z,34.78
2022-11-07T01:09:25.704Z,34.20
2022-11-07T01:11:56.181Z,33.90
2022-11-07T01:16:57.033Z,29.00
2022-11-07T01:21:57.379Z,28.02
2022-11-07T01:26:57.674Z,31.02
2022-11-07T01:31:57.995Z,31.67
2022-11-07T01:36:58.103Z,32.03
2022-11-07T01:39:28.608Z,30.77
2022-11-07T01:44:53.701Z,32.50
2022-11-07T01:47:26.377Z,32.38
2022-11-07T01:49:57.413Z,31.77
2022-11-07T01:52:36.372Z,34.38
2022-11-07T01:55:18.649Z,34.92
2022-11-07T01:57:57.564Z,35.58
2022-11-07T02:00:29.261Z,35.97
2022-11-07T02:03:08.372Z,34.90
2022-11-07T02:05:45.658Z,37.30
2022-11-07T02:08:17.538Z,43.80
2022-11-07T02:10:48.044Z,40.67
2022-11-07T02:13:27.630Z,44.03
2022-11-07T02:15:58.621Z,45.00
2022-11-07T02:18:31.852Z,46.88
2022-11-07T02:21:12.272Z,43.45
2022-11-07T02:26:19.791Z,45.47
2022-11-07T02:28:51.424Z,46.03
2022-11-07T02:31:21.309Z,48.20
2022-11-07T02:33:51.170Z,47.80
2022-11-07T02:36:24.135Z,46.67
2022-11-07T02:38:59.025Z,47.38
2022-11-07T02:41:34.385Z,49.00
2022-11-07T02:44:09.927Z,48.17
2022-11-07T02:46:41.539Z,47.90
2022-11-07T02:49:11.566Z,46.42
2022-11-07T02:51:41.509Z,48.97
2022-11-07T02:54:11.506Z,52.78
2022-11-07T02:56:41.403Z,49.33
2022-11-07T02:59:12.221Z,55.40
2022-11-07T03:01:42.197Z,55.75
2022-11-07T03:04:12.154Z,53.55
2022-11-07T03:06:42.074Z,56.40
2022-11-07T03:09:11.894Z,56.75
2022-11-07T03:11:41.801Z,55.05
2022-11-07T03:14:11.628Z,54.40
2022-11-07T03:16:41.488Z,58.20
2022-11-07T03:19:11.446Z,57.58
2022-11-07T03:21:41.254Z,57.97
2022-11-07T03:24:11.223Z,56.85
2022-11-07T03:26:41.185Z,57.75
2022-11-07T03:29:11.325Z,65.20
2022-11-07T03:31:41.234Z,83.75
2022-11-07T03:34:11.147Z,68.80
2022-11-07T03:36:41.056Z,64.40
2022-11-07T03:39:11.692Z,63.13
2022-11-07T03:41:41.575Z,63.60
2022-11-07T03:44:11.475Z,65.05
2022-11-07T03:46:41.346Z,64.47
2022-11-07T03:49:11.658Z,64.30
2022-11-07T03:51:41.645Z,68.05
2022-11-07T03:54:12.095Z,60.72
2022-11-07T03:56:42.442Z,62.97
2022-11-07T03:59:12.465Z,60.28
2022-11-07T04:01:42.638Z,56.38
2022-11-07T04:06:42.227Z,56.03
2022-11-07T04:11:53.791Z,52.60
2022-11-07T04:14:33.861Z,54.08
2022-11-07T04:17:14.015Z,53.63
2022-11-07T04:22:13.246Z,60.67
2022-11-07T04:24:46.014Z,61.05
2022-11-07T04:27:34.563Z,60.80
2022-11-07T04:30:20.631Z,66.30
2022-11-07T04:32:56.025Z,61.00
2022-11-07T04:35:29.203Z,65.55
2022-11-07T04:37:59.514Z,63.20
2022-11-07T04:40:30.967Z,61.85
2022-11-07T04:43:00.964Z,61.10
2022-11-07T04:45:30.881Z,50.42
2022-11-07T04:48:00.951Z,40.30
2022-11-07T04:50:31.244Z,40.58
2022-11-07T04:53:01.290Z,33.70
2022-11-07T04:55:32.708Z,38.92
2022-11-07T04:58:02.630Z,34.75
2022-11-07T05:00:32.575Z,31.13
2022-11-07T05:03:02.818Z,26.98
2022-11-07T05:05:32.837Z,31.98
2022-11-07T05:08:02.709Z,33.38
2022-11-07T05:10:32.950Z,35.25
2022-11-07T05:13:02.873Z,34.83
2022-11-07T05:15:32.891Z,36.30
2022-11-07T05:18:02.737Z,36.25
2022-11-07T05:20:35.794Z,39.45
2022-11-07T05:23:18.581Z,38.85
2022-11-07T05:25:52.552Z,35.83
2022-11-07T05:28:35.242Z,35.10
2022-11-07T05:31:08.985Z,35.47
2022-11-07T05:33:39.394Z,30.55
2022-11-07T05:36:14.637Z,31.15
2022-11-07T05:38:47.893Z,33.15
2022-11-07T05:41:19.673Z,35.33
2022-11-07T05:43:50.158Z,37.97
2022-11-07T05:46:20.225Z,34.00
2022-11-07T05:51:19.468Z,27.40
2022-11-07T05:53:49.731Z,23.92
2022-11-07T05:56:19.589Z,28.90
2022-11-07T05:58:49.606Z,30.08
2022-11-07T06:01:19.521Z,31.63
2022-11-07T06:03:49.490Z,28.67
2022-11-07T06:08:48.740Z,29.40
2022-11-07T06:11:18.602Z,28.75
2022-11-07T06:13:48.591Z,28.48
2022-11-07T06:16:18.530Z,25.17
2022-11-07T06:18:48.554Z,25.38
2022-11-07T06:21:18.773Z,25.95
2022-11-07T06:23:48.748Z,24.42
2022-11-07T06:26:18.822Z,24.65
2022-11-07T06:31:18.113Z,22.00
2022-11-07T06:33:48.253Z,21.95
2022-11-07T06:38:47.606Z,24.03
2022-11-07T06:41:18.037Z,24.00
2022-11-07T06:43:47.895Z,24.38
2022-11-07T06:46:19.379Z,23.05
2022-11-07T06:48:49.330Z,23.85
2022-11-07T06:51:19.632Z,23.02
2022-11-07T06:53:49.866Z,25.58
2022-11-07T06:56:19.936Z,22.50
2022-11-07T07:01:20.252Z,24.00
2022-11-07T07:03:50.174Z,20.88
2022-11-07T07:08:50.242Z,20.27
2022-11-07T07:11:20.121Z,20.85
2022-11-07T07:13:50.244Z,22.17
2022-11-07T07:16:20.193Z,22.25
2022-11-07T07:21:19.541Z,21.23
2022-11-07T07:26:19.393Z,20.95
2022-11-07T07:28:50.766Z,20.35
2022-11-07T07:31:25.536Z,19.67
2022-11-07T07:33:55.517Z,23.15
2022-11-07T07:38:55.780Z,22.75
2022-11-07T07:41:25.922Z,21.02
2022-11-07T07:43:55.883Z,43.58
2022-11-07T07:46:26.628Z,34.33
2022-11-07T07:48:56.586Z,24.15
2022-11-07T07:51:26.602Z,20.23
2022-11-07T07:56:26.032Z,23.77
2022-11-07T07:58:55.956Z,27.38
2022-11-07T08:01:26.179Z,21.65
2022-11-07T08:04:01.844Z,24.85
2022-11-07T08:06:32.669Z,23.92
2022-11-07T08:09:02.600Z,25.60
2022-11-07T08:11:32.705Z,23.65
2022-11-07T08:14:02.712Z,21.30
2022-11-07T08:19:02.519Z,21.67
2022-11-07T08:21:33.002Z,19.25
2022-11-07T08:24:05.447Z,20.48
2022-11-07T08:26:36.404Z,20.60
2022-11-07T08:29:07.147Z,23.50
2022-11-07T08:31:37.719Z,20.60
2022-11-07T08:34:11.230Z,19.40
2022-11-07T08:36:41.838Z,19.48
2022-11-07T08:39:12.308Z,17.75
2022-11-07T08:41:42.914Z,17.65
2022-11-07T08:44:13.340Z,19.15
2022-11-07T08:46:43.762Z,19.05
2022-11-07T08:49:14.260Z,20.70
2022-11-07T08:51:45.033Z,21.25
2022-11-07T08:54:16.148Z,19.33
2022-11-07T08:56:46.797Z,19.40
2022-11-07T08:59:18.006Z,19.77
2022-11-07T09:02:28.046Z,19.50
2022-11-07T09:04:38.975Z,20.42
2022-11-07T09:07:09.609Z,19.70
2022-11-07T09:09:40.080Z,20.02
2022-11-07T09:12:11.292Z,20.85
2022-11-07T09:14:41.722Z,20.55
2022-11-07T09:17:12.346Z,20.52
2022-11-07T09:19:42.778Z,22.27
2022-11-07T09:22:13.323Z,22.00
2022-11-07T09:24:43.722Z,20.30
2022-11-07T09:27:14.244Z,22.35
2022-11-07T09:29:44.682Z,21.88
2022-11-07T09:32:42.801Z,20.67
2022-11-07T09:35:05.730Z,18.40
2022-11-07T09:37:36.474Z,20.63
2022-11-07T09:40:07.538Z,21.50
2022-11-07T09:43:05.855Z,20.85
2022-11-07T09:45:43.933Z,18.60
2022-11-07T09:48:22.031Z,21.05
2022-11-07T09:50:55.188Z,22.65
2022-11-07T09:53:36.116Z,21.23
2022-11-07T09:56:08.302Z,22.42
2022-11-07T09:58:54.419Z,22.25
2022-11-07T10:01:25.457Z,25.02
2022-11-07T10:04:23.656Z,29.33
2022-11-07T10:07:03.765Z,29.25
2022-11-07T10:09:52.851Z,26.85
2022-11-07T10:12:47.989Z,23.58
2022-11-07T10:15:32.076Z,23.60
2022-11-07T10:18:28.322Z,25.48
2022-11-07T10:21:38.872Z,24.58
2022-11-07T10:24:38.877Z,32.85
2022-11-07T10:27:14.011Z,26.50
2022-11-07T10:29:54.537Z,27.67
2022-11-07T10:32:38.970Z,27.20
2022-11-07T10:35:26.644Z,26.33
2022-11-07T10:37:58.864Z,26.23
2022-11-07T10:40:36.384Z,24.90
2022-11-07T10:43:12.266Z,28.42
2022-11-07T10:45:44.049Z,27.90
2022-11-07T10:48:17.938Z,24.35
2022-11-07T10:50:58.369Z,27.52
2022-11-07T10:56:00.731Z,25.60
2022-11-07T10:58:38.354Z,28.95
2022-11-07T11:01:12.231Z,26.38
2022-11-07T11:03:46.884Z,26.10
2022-11-07T11:06:31.236Z,28.38
2022-11-07T11:09:15.788Z,28.38
2022-11-07T11:11:53.155Z,27.48
2022-11-07T11:14:25.480Z,28.17
2022-11-07T11:16:58.841Z,29.50
2022-11-07T11:19:36.734Z,27.17
2022-11-07T11:22:19.027Z,30.27
2022-11-07T11:25:00.515Z,29.10
2022-11-07T11:27:35.624Z,35.20
2022-11-07T11:30:14.596Z,32.70
2022-11-07T11:32:59.034Z,31.33
2022-11-07T11:35:42.869Z,33.47
2022-11-07T11:38:26.812Z,35.00
2022-11-07T11:41:07.624Z,35.45
2022-11-07T11:43:57.652Z,37.78
2022-11-07T11:46:43.383Z,40.20
2022-11-07T11:49:27.530Z,37.15
2022-11-07T11:52:06.169Z,39.00
2022-11-07T11:54:37.890Z,41.90
2022-11-07T11:57:31.416Z,42.22
2022-11-07T12:00:14.085Z,45.78
2022-11-07T12:03:09.358Z,41.78
2022-11-07T12:06:12.767Z,39.35
2022-11-07T12:09:19.407Z,39.83
2022-11-07T12:12:02.641Z,44.72
2022-11-07T12:14:49.611Z,57.00
2022-11-07T12:17:41.254Z,56.40
2022-11-07T12:20:30.519Z,55.63
2022-11-07T12:23:19.892Z,64.82
2022-11-07T12:26:04.260Z,58.80
2022-11-07T12:28:47.744Z,54.28
2022-11-07T12:31:39.627Z,49.08
2022-11-07T12:34:27.835Z,53.50
2022-11-07T12:37:27.694Z,51.33
2022-11-07T12:40:29.425Z,41.67
2022-11-07T12:43:12.202Z,44.10
2022-11-07T12:46:07.991Z,46.00
2022-11-07T12:49:09.334Z,42.40
2022-11-07T12:51:54.067Z,45.15
2022-11-07T12:54:59.337Z,50.88
2022-11-07T12:57:34.824Z,51.20
2022-11-07T13:00:29.123Z,52.60
2022-11-07T13:03:29.140Z,55.22
2022-11-07T13:06:29.398Z,58.97
2022-11-07T13:09:17.358Z,56.92
2022-11-07T13:12:01.659Z,59.45
2022-11-07T13:14:39.155Z,55.30
2022-11-07T13:17:22.775Z,59.67
2022-11-07T13:20:27.390Z,57.38
2022-11-07T13:23:00.716Z,53.55
2022-11-07T13:25:38.204Z,49.55
2022-11-07T13:28:20.625Z,47.58
2022-11-07T13:31:01.226Z,47.10
2022-11-07T13:33:38.040Z,44.17
2022-11-07T13:36:27.434Z,45.47
2022-11-07T13:39:02.780Z,45.93
2022-11-07T13:41:33.974Z,47.78
2022-11-07T13:44:10.136Z,46.08
2022-11-07T13:46:55.106Z,44.90
2022-11-07T13:49:47.529Z,44.80
2022-11-07T13:52:42.814Z,45.10
2022-11-07T13:55:28.913Z,45.22
2022-11-07T13:58:09.456Z,43.15
2022-11-07T14:00:40.779Z,42.97
2022-11-07T14:03:26.589Z,43.45
2022-11-07T14:06:00.956Z,43.53
2022-11-07T14:08:42.412Z,44.70
2022-11-07T14:11:23.311Z,43.17
2022-11-07T14:13:56.684Z,40.55
2022-11-07T14:16:29.899Z,45.45
2022-11-07T14:19:05.716Z,45.25
2022-11-07T14:21:38.766Z,50.25
2022-11-07T14:24:34.830Z,54.75
2022-11-07T14:27:16.720Z,51.92
2022-11-07T14:30:02.932Z,53.78
2022-11-07T14:32:33.421Z,50.53
2022-11-07T14:35:03.881Z,52.53
2022-11-07T14:37:37.220Z,49.50
2022-11-07T14:40:08.523Z,49.50
2022-11-07T14:42:40.220Z,50.50
2022-11-07T14:45:14.407Z,50.30
2022-11-07T14:47:48.247Z,48.42
2022-11-07T14:50:26.002Z,47.85
2022-11-07T14:53:10.920Z,48.80
2022-11-07T14:55:48.435Z,52.40
2022-11-07T14:58:22.635Z,52.90
2022-11-07T15:01:00.109Z,53.88
2022-11-07T15:03:36.471Z,54.38
2022-11-07T15:06:07.564Z,53.00
2022-11-07T15:08:41.399Z,53.03
2022-11-07T15:11:33.679Z,53.60
2022-11-07T15:14:07.255Z,55.50
2022-11-07T15:16:48.546Z,58.25
2022-11-07T15:19:23.085Z,59.90
2022-11-07T15:22:02.342Z,60.60
2022-11-07T15:24:46.067Z,62.15
2022-11-07T15:27:25.276Z,61.55
2022-11-07T15:29:59.448Z,61.40
2022-11-07T15:32:44.398Z,63.35
2022-11-07T15:38:20.994Z,61.92
2022-11-07T15:40:51.876Z,60.17
2022-11-07T15:43:22.850Z,65.05
2022-11-07T15:45:55.665Z,67.22
2022-11-07T15:48:33.734Z,71.18
2022-11-07T15:51:07.612Z,70.93
2022-11-07T15:53:37.986Z,69.80
2022-11-07T15:58:40.733Z,66.88
2022-11-07T16:01:11.999Z,67.97
2022-11-07T16:03:43.578Z,65.85
2022-11-07T16:06:29.246Z,65.50
2022-11-07T16:08:59.891Z,65.72
2022-11-07T16:11:30.709Z,63.88
2022-11-07T16:14:29.414Z,65.22
2022-11-07T16:16:52.683Z,64.32
2022-11-07T16:19:27.174Z,66.05
2022-11-07T16:21:57.768Z,66.13
2022-11-07T16:24:28.157Z,66.78
2022-11-07T16:26:58.742Z,66.70
2022-11-07T16:29:29.383Z,66.80
2022-11-07T16:32:04.860Z,67.45
2022-11-07T16:34:35.308Z,63.72
2022-11-07T16:37:05.855Z,65.40
2022-11-07T16:39:36.357Z,64.80
2022-11-07T16:42:06.918Z,64.03
2022-11-07T16:44:37.397Z,63.92
2022-11-07T16:47:08.350Z,62.40
2022-11-07T16:49:39.366Z,62.97
2022-11-07T16:52:11.369Z,67.72
2022-11-07T16:54:41.762Z,66.47
2022-11-07T16:59:46.291Z,63.70
2022-11-07T17:02:21.391Z,62.47
2022-11-07T17:04:54.492Z,64.00
2022-11-07T17:07:26.082Z,61.20
2022-11-07T17:09:56.509Z,62.47
2022-11-07T17:14:57.433Z,60.55
2022-11-07T17:17:27.917Z,61.97
2022-11-07T17:19:58.308Z,60.63
2022-11-07T17:24:58.470Z,64.60
2022-11-07T17:30:00.419Z,65.47
2022-11-07T17:32:32.608Z,60.80
2022-11-07T17:35:30.616Z,64.00
2022-11-07T17:37:53.435Z,61.53
2022-11-07T17:40:31.345Z,62.13
2022-11-07T17:43:02.627Z,58.95
2022-11-07T17:45:33.052Z,55.70
2022-11-07T17:50:33.454Z,59.47
2022-11-07T17:53:03.926Z,55.35
2022-11-07T17:55:34.344Z,55.58
2022-11-07T17:58:04.867Z,54.72
2022-11-07T18:00:35.289Z,56.58
2022-11-07T18:05:36.811Z,53.92
2022-11-07T18:08:15.377Z,54.88
2022-11-07T18:10:56.308Z,53.55
2022-11-07T18:13:26.984Z,56.28
2022-11-07T18:18:27.454Z,54.28
2022-11-07T18:20:58.163Z,54.08
2022-11-07T18:23:28.698Z,51.85
2022-11-07T18:26:09.014Z,51.25
2022-11-07T18:28:41.836Z,50.42
2022-11-07T18:31:16.333Z,50.33
2022-11-07T18:33:47.299Z,50.65
2022-11-07T18:36:21.042Z,49.22
2022-11-07T18:38:52.966Z,49.80
2022-11-07T18:41:27.096Z,49.40
2022-11-07T18:44:01.715Z,45.83
2022-11-07T18:46:34.998Z,43.97
2022-11-07T18:49:06.235Z,42.08
2022-11-07T18:51:37.920Z,41.08
2022-11-07T18:54:09.151Z,44.03
2022-11-07T18:56:39.767Z,43.05
2022-11-07T18:59:10.268Z,45.47
2022-11-07T19:01:40.790Z,45.13
2022-11-07T19:04:13.488Z,43.25
2022-11-07T19:06:58.809Z,43.40
2022-11-07T19:09:33.713Z,41.78
2022-11-07T19:12:04.588Z,47.60
2022-11-07T19:14:35.034Z,48.85
2022-11-07T19:19:37.508Z,43.92
2022-11-07T19:22:08.519Z,48.17
2022-11-07T19:24:39.141Z,44.55
2022-11-07T19:27:10.726Z,47.78
2022-11-07T19:29:41.321Z,48.28
2022-11-07T19:32:11.881Z,45.33
2022-11-07T19:34:42.482Z,45.35
2022-11-07T19:37:13.440Z,46.78
2022-11-07T19:39:43.933Z,47.58
2022-11-07T19:42:14.273Z,44.80
2022-11-07T19:47:22.421Z,49.00
2022-11-07T19:49:52.874Z,50.40
2022-11-07T19:54:54.105Z,50.63
2022-11-07T19:57:24.647Z,48.65
2022-11-07T19:59:55.549Z,47.78
2022-11-07T20:02:32.689Z,48.05
2022-11-07T20:05:05.345Z,51.83
2022-11-07T20:07:35.926Z,45.83
2022-11-07T20:10:07.015Z,50.58
2022-11-07T20:12:37.395Z,47.92
2022-11-07T20:15:08.151Z,46.33
2022-11-07T20:17:38.611Z,46.45
2022-11-07T20:22:51.570Z,45.35
2022-11-07T20:25:22.449Z,47.67
2022-11-07T20:27:52.934Z,48.67
2022-11-07T20:32:53.218Z,48.47
2022-11-07T20:37:53.868Z,46.33
2022-11-07T20:40:29.020Z,47.15
2022-11-07T20:42:59.992Z,45.90
2022-11-07T20:45:30.541Z,44.80
2022-11-07T20:50:30.639Z,46.28
2022-11-07T20:53:01.048Z,44.10
2022-11-07T20:58:01.492Z,44.23
2022-11-07T21:00:31.964Z,43.70
2022-11-07T21:05:32.919Z,49.45
2022-11-07T21:08:03.289Z,44.83
2022-11-07T21:10:33.809Z,42.13
2022-11-07T21:13:04.225Z,44.22
2022-11-07T21:15:34.838Z,45.75
2022-11-07T21:18:06.318Z,43.13
2022-11-07T21:20:36.730Z,40.47
2022-11-07T21:23:07.978Z,41.55
2022-11-07T21:25:45.752Z,45.05
2022-11-07T21:28:20.464Z,42.38
2022-11-07T21:31:08.268Z,42.83
2022-11-07T21:33:39.242Z,41.03
2022-11-07T21:36:14.500Z,41.58
2022-11-07T21:38:45.044Z,38.63
2022-11-07T21:43:46.967Z,42.72
2022-11-07T21:46:23.494Z,42.72
2022-11-07T21:48:54.593Z,42.67
2022-11-07T21:51:27.616Z,45.33
2022-11-07T21:53:58.899Z,44.00
2022-11-07T21:56:32.445Z,45.80
2022-11-07T21:59:05.249Z,44.15
2022-11-07T22:01:37.048Z,41.03
2022-11-07T22:04:12.728Z,44.38
2022-11-07T22:06:46.103Z,40.40
2022-11-07T22:09:18.736Z,43.70
2022-11-07T22:11:49.847Z,43.92
2022-11-07T22:14:23.525Z,48.10
2022-11-07T22:16:57.622Z,42.60
2022-11-07T22:19:29.071Z,41.88
2022-11-07T22:21:59.444Z,40.38
2022-11-07T22:24:30.148Z,39.88
2022-11-07T22:27:01.161Z,42.22
2022-11-07T22:29:31.961Z,38.22
2022-11-07T22:32:04.173Z,38.75
2022-11-07T22:34:34.882Z,39.45
2022-11-07T22:37:05.306Z,38.25
2022-11-07T22:39:36.231Z,39.90
2022-11-07T22:42:06.707Z,39.63
2022-11-07T22:47:07.223Z,40.42
2022-11-07T22:49:37.741Z,39.40
2022-11-07T22:54:37.890Z,43.23
2022-11-07T22:59:38.194Z,40.87
2022-11-07T23:04:39.601Z,40.17
2022-11-07T23:07:10.416Z,38.45
2022-11-07T23:09:40.853Z,41.67
2022-11-07T23:12:11.343Z,39.83
2022-11-07T23:17:11.720Z,41.10
2022-11-07T23:22:11.928Z,38.30
2022-11-07T23:27:12.260Z,39.08
2022-11-07T23:29:42.837Z,38.90
2022-11-07T23:34:43.780Z,43.40
2022-11-07T23:37:19.920Z,40.50
2022-11-07T23:39:50.564Z,39.75
2022-11-07T23:42:20.916Z,42.88
2022-11-07T23:45:06.416Z,40.80
2022-11-07T23:47:46.549Z,38.58
2022-11-07T23:50:26.836Z,40.60
2022-11-07T23:52:58.070Z,38.80
2022-11-07T23:55:43.512Z,39.10
2022-11-07T23:58:27.193Z,41.75
